Погода Кальницана 2 недели

Подкарпатское воеводство, Польша

19 июля-01 августа
  • 19июля
    Сегодня
    +12°
    +25°
    Ясно и безоблачно
    ВремяПогодаТемператураВлажностьДавлениеВетер, м/сВероятность осадков
    02:00Облачно с прояснениями+16°C77 %755 мм1.3 м/с2 %
    05:00Ясно и безоблачно+14°C91 %755 мм1.0 м/с2 %
    08:00Ясно и безоблачно+18°C75 %755 мм2.0 м/с2 %
    11:00Ясно и безоблачно+22°C57 %755 мм2.8 м/с2 %
    14:00Ясно и безоблачно+25°C49 %754 мм3.0 м/с2 %
    17:00Ясно и безоблачно+24°C46 %753 мм2.7 м/с2 %
    20:00Ясно и безоблачно+22°C58 %752 мм1.4 м/с2 %
    23:00Ясно и безоблачно+17°C66 %753 мм1.4 м/с2 %
  • 20июля
    Суббота
    +14°
    +26°
    Ясно и безоблачно
    ВремяПогодаТемператураВлажностьДавлениеВетер, м/сВероятность осадков
    02:00Ясно и безоблачно+13°C82 %752 мм0.9 м/с2 %
    05:00Ясно и безоблачно+12°C89 %751 мм0.7 м/с2 %
    08:00Практически безоблачно+18°C71 %751 мм1.8 м/с2 %
    11:00Ясно и безоблачно+22°C50 %751 мм2.5 м/с2 %
    14:00Ясно и безоблачно+25°C42 %750 мм2.3 м/с2 %
    17:00Ясно и безоблачно+25°C41 %748 мм2.0 м/с2 %
    20:00Ясно и безоблачно+22°C67 %748 мм0.9 м/с2 %
    23:00Практически безоблачно+18°C74 %748 мм0.9 м/с2 %
  • 21июля
    Воскресенье
    +15°
    +27°
    Пасмурно, сплошная облачность
    ВремяПогодаТемператураВлажностьДавлениеВетер, м/сВероятность осадков
    02:00Ясно и безоблачно+15°C69 %747 мм0.9 м/с2 %
    05:00Ясно и безоблачно+14°C84 %747 мм0.8 м/с2 %
    08:00Ясно и безоблачно+20°C58 %747 мм1.4 м/с2 %
    11:00Практически безоблачно+25°C43 %747 мм2.1 м/с2 %
    14:00Пасмурно, сплошная облачность+27°C37 %746 мм1.9 м/с3 %
    17:00Облачно с прояснениями+27°C35 %746 мм1.8 м/с3 %
    20:00Практически безоблачно+24°C60 %746 мм0.9 м/с2 %
    23:00Ясно и безоблачно+19°C61 %746 мм0.9 м/с2 %
  • 22июля
    Понедельник
    +17°
    +30°
    Практически безоблачно
    ВремяПогодаТемператураВлажностьДавлениеВетер, м/сВероятность осадков
    02:00Ясно и безоблачно+16°C75 %746 мм1.0 м/с2 %
    05:00Ясно и безоблачно+15°C84 %746 мм0.8 м/с2 %
    08:00Ясно и безоблачно+22°C63 %746 мм1.6 м/с2 %
    11:00Практически безоблачно+27°C41 %747 мм2.2 м/с2 %
    14:00Практически безоблачно+30°C34 %746 мм2.2 м/с11 %
    17:00Практически безоблачно+28°C35 %746 мм1.7 м/с11 %
    20:00Практически безоблачно+26°C58 %746 мм0.7 м/с13 %
    23:00Ясно и безоблачно+21°C59 %747 мм1.1 м/с16 %
  • 23июля
    Вторник
    +14°
    +24°
    Пасмурно, дожди с грозами
    ВремяПогодаТемператураВлажностьДавлениеВетер, м/сВероятность осадков
    02:00Облачно с прояснениями+19°C65 %746 мм1.1 м/с21 %
    05:00Облачно с прояснениями+18°C73 %746 мм1.1 м/с23 %
    08:00Облачно с прояснениями+20°C63 %747 мм1.4 м/с21 %
    11:00Облачно с прояснениями+22°C52 %747 мм1.9 м/с21 %
    14:00Пасмурно, дожди с грозами+22°C59 %747 мм2.1 м/с37 %
    17:00Пасмурно, небольшой дождь+24°C72 %748 мм2.5 м/с30 %
    20:00Облачно с прояснениями+22°C70 %748 мм1.6 м/с23 %
    23:00Небольшая облачность+17°C79 %748 мм1.2 м/с13 %
Мы используем cookies
Соглашаюсь